createdAt,value
2023-01-21T00:00:45.627Z,31.08
2023-01-21T00:03:12.933Z,32.13
2023-01-21T00:05:39.814Z,31.50
2023-01-21T00:08:06.431Z,31.02
2023-01-21T00:10:33.611Z,30.92
2023-01-21T00:13:00.425Z,30.73
2023-01-21T00:15:27.305Z,29.92
2023-01-21T00:17:54.557Z,29.75
2023-01-21T00:20:21.601Z,31.50
2023-01-21T00:22:48.470Z,30.42
2023-01-21T00:25:15.143Z,29.95
2023-01-21T00:27:41.732Z,30.60
2023-01-21T00:30:10.570Z,29.35
2023-01-21T00:32:37.594Z,28.95
2023-01-21T00:35:05.890Z,30.42
2023-01-21T00:37:32.693Z,29.67
2023-01-21T00:39:59.273Z,30.92
2023-01-21T00:42:27.799Z,30.17
2023-01-21T00:44:55.005Z,28.20
2023-01-21T00:47:21.567Z,30.23
2023-01-21T00:49:48.152Z,31.00
2023-01-21T00:52:14.819Z,31.15
2023-01-21T00:54:42.239Z,29.25
2023-01-21T00:57:08.876Z,29.92
2023-01-21T00:59:35.572Z,31.02
2023-01-21T01:02:02.219Z,31.00
2023-01-21T01:04:28.821Z,28.40
2023-01-21T01:06:55.403Z,27.42
2023-01-21T01:09:21.971Z,28.83
2023-01-21T01:11:48.648Z,29.20
2023-01-21T01:14:15.233Z,27.92
2023-01-21T01:16:41.799Z,27.45
2023-01-21T01:19:09.034Z,29.17
2023-01-21T01:21:35.676Z,28.63
2023-01-21T01:24:03.148Z,28.10
2023-01-21T01:26:29.804Z,28.50
2023-01-21T01:28:56.420Z,28.00
2023-01-21T01:31:23.296Z,27.67
2023-01-21T01:33:50.019Z,27.98
2023-01-21T01:36:19.775Z,28.35
2023-01-21T01:38:46.477Z,28.67
2023-01-21T01:41:18.409Z,27.55
2023-01-21T01:43:55.861Z,28.70
2023-01-21T01:46:23.667Z,25.75
2023-01-21T01:49:00.337Z,28.77
2023-01-21T01:51:33.075Z,28.02
2023-01-21T01:54:00.298Z,28.00
2023-01-21T01:56:28.825Z,27.15
2023-01-21T01:58:55.703Z,29.75
2023-01-21T02:01:22.486Z,28.13
2023-01-21T02:03:56.795Z,28.48
2023-01-21T02:06:23.494Z,28.15
2023-01-21T02:08:51.151Z,28.33
2023-01-21T02:11:19.899Z,29.90
2023-01-21T02:13:57.495Z,30.30
2023-01-21T02:16:42.415Z,26.90
2023-01-21T02:19:39.553Z,28.02
2023-01-21T02:22:34.732Z,27.27
2023-01-21T02:25:32.613Z,30.15
2023-01-21T02:28:18.080Z,29.70
2023-01-21T02:31:06.594Z,30.60
2023-01-21T02:33:48.759Z,30.33
2023-01-21T02:36:30.331Z,31.05
2023-01-21T02:39:11.932Z,29.60
2023-01-21T02:42:02.689Z,28.90
2023-01-21T02:45:16.527Z,30.85
2023-01-21T02:48:11.909Z,31.13
2023-01-21T02:50:45.555Z,28.30
2023-01-21T02:53:29.076Z,30.58
2023-01-21T02:56:01.519Z,28.70
2023-01-21T02:58:36.140Z,29.83
2023-01-21T03:01:27.325Z,28.55
2023-01-21T03:04:02.502Z,29.42
2023-01-21T03:06:53.832Z,28.83
2023-01-21T03:09:25.024Z,28.67
2023-01-21T03:12:24.933Z,29.75
2023-01-21T03:15:34.770Z,26.73
2023-01-21T03:18:09.067Z,27.58
2023-01-21T03:20:44.814Z,27.10
2023-01-21T03:23:20.819Z,28.73
2023-01-21T03:25:50.323Z,27.67
2023-01-21T03:28:28.537Z,26.77
2023-01-21T03:31:03.306Z,27.60
2023-01-21T03:33:34.256Z,28.75
2023-01-21T03:36:02.668Z,29.60
2023-01-21T03:38:35.757Z,29.25
2023-01-21T03:41:18.046Z,28.75
2023-01-21T03:43:45.548Z,28.20
2023-01-21T03:46:20.793Z,27.90
2023-01-21T03:48:54.160Z,29.38
2023-01-21T03:51:30.333Z,30.33
2023-01-21T03:53:58.155Z,29.83
2023-01-21T03:56:28.241Z,30.75
2023-01-21T03:58:55.104Z,29.02
2023-01-21T04:01:21.756Z,32.40
2023-01-21T04:03:48.841Z,32.25
2023-01-21T04:06:21.618Z,30.52
2023-01-21T04:08:48.376Z,23.47
2023-01-21T04:11:15.351Z,30.42
2023-01-21T04:13:41.972Z,31.88
2023-01-21T04:16:08.891Z,32.95
2023-01-21T04:18:35.698Z,33.15
2023-01-21T04:21:02.579Z,32.67
2023-01-21T04:23:29.266Z,31.92
2023-01-21T04:25:55.851Z,32.10
2023-01-21T04:28:22.611Z,33.42
2023-01-21T04:30:49.759Z,32.55
2023-01-21T04:33:16.566Z,33.33
2023-01-21T04:35:43.282Z,34.92
2023-01-21T04:38:10.202Z,32.58
2023-01-21T04:40:36.995Z,34.42
2023-01-21T04:43:03.682Z,33.15
2023-01-21T04:45:30.315Z,35.58
2023-01-21T04:47:56.933Z,34.97
2023-01-21T04:50:23.564Z,33.88
2023-01-21T04:52:50.169Z,34.17
2023-01-21T04:55:17.027Z,32.63
2023-01-21T04:57:43.642Z,34.10
2023-01-21T05:00:10.747Z,31.25
2023-01-21T05:02:37.406Z,34.78
2023-01-21T05:05:04.560Z,34.28
2023-01-21T05:07:31.186Z,34.10
2023-01-21T05:09:57.810Z,33.03
2023-01-21T05:12:24.429Z,33.70
2023-01-21T05:14:54.955Z,33.33
2023-01-21T05:17:21.688Z,33.05
2023-01-21T05:19:48.600Z,33.00
2023-01-21T05:22:15.167Z,33.20
2023-01-21T05:24:41.752Z,32.38
2023-01-21T05:27:08.902Z,33.50
2023-01-21T05:29:35.565Z,32.63
2023-01-21T05:32:02.231Z,34.90
2023-01-21T05:34:28.871Z,34.40
2023-01-21T05:36:55.483Z,32.85
2023-01-21T05:39:22.097Z,35.38
2023-01-21T05:41:48.698Z,35.10
2023-01-21T05:44:17.569Z,33.22
2023-01-21T05:46:44.418Z,35.03
2023-01-21T05:49:11.156Z,32.70
2023-01-21T05:51:37.778Z,33.10
2023-01-21T05:54:04.637Z,34.47
2023-01-21T05:56:31.261Z,34.63
2023-01-21T05:58:58.295Z,35.67
2023-01-21T06:01:25.030Z,34.08
2023-01-21T06:03:51.685Z,34.55
2023-01-21T06:06:18.414Z,34.67
2023-01-21T06:08:45.083Z,32.75
2023-01-21T06:11:11.788Z,34.30
2023-01-21T06:13:38.384Z,35.90
2023-01-21T06:16:05.333Z,34.72
2023-01-21T06:18:32.046Z,34.90
2023-01-21T06:21:01.655Z,33.90
2023-01-21T06:23:28.300Z,30.77
2023-01-21T06:25:59.691Z,32.53
2023-01-21T06:28:26.638Z,34.10
2023-01-21T06:30:53.467Z,31.23
2023-01-21T06:33:20.172Z,32.20
2023-01-21T06:35:47.386Z,31.90
2023-01-21T06:38:14.432Z,31.83
2023-01-21T06:40:41.319Z,30.75
2023-01-21T06:43:08.123Z,30.17
2023-01-21T06:45:34.713Z,29.25
2023-01-21T06:48:01.479Z,30.08
2023-01-21T06:50:28.136Z,30.95
2023-01-21T06:52:54.766Z,27.85
2023-01-21T06:55:21.497Z,28.13
2023-01-21T06:57:48.080Z,29.35
2023-01-21T07:00:15.397Z,28.38
2023-01-21T07:02:42.206Z,29.33
2023-01-21T07:05:09.024Z,29.40
2023-01-21T07:07:35.915Z,28.40
2023-01-21T07:10:02.914Z,30.48
2023-01-21T07:12:29.626Z,28.02
2023-01-21T07:14:56.331Z,29.52
2023-01-21T07:17:23.155Z,29.55
2023-01-21T07:19:49.886Z,29.52
2023-01-21T07:22:16.532Z,28.98
2023-01-21T07:24:43.115Z,30.25
2023-01-21T07:27:09.980Z,29.67
2023-01-21T07:29:36.566Z,29.27
2023-01-21T07:32:04.165Z,27.92
2023-01-21T07:34:30.809Z,28.08
2023-01-21T07:36:57.431Z,30.38
2023-01-21T07:39:24.021Z,29.25
2023-01-21T07:41:50.626Z,30.13
2023-01-21T07:44:17.193Z,28.08
2023-01-21T07:46:43.864Z,27.45
2023-01-21T07:49:12.850Z,30.20
2023-01-21T07:51:39.451Z,30.10
2023-01-21T07:54:06.033Z,28.40
2023-01-21T07:56:32.637Z,28.55
2023-01-21T07:58:59.213Z,29.30
2023-01-21T08:01:30.791Z,29.95
2023-01-21T08:03:58.568Z,29.77
2023-01-21T08:06:25.768Z,26.95
2023-01-21T08:08:52.781Z,30.33
2023-01-21T08:11:19.531Z,28.73
2023-01-21T08:13:46.213Z,29.63
2023-01-21T08:16:13.612Z,29.13
2023-01-21T08:18:40.532Z,28.33
2023-01-21T08:21:07.150Z,28.23
2023-01-21T08:23:34.564Z,29.95
2023-01-21T08:26:06.510Z,27.60
2023-01-21T08:28:33.732Z,28.67
2023-01-21T08:31:05.839Z,30.33
2023-01-21T08:33:33.069Z,27.52
2023-01-21T08:36:04.294Z,30.30
2023-01-21T08:38:30.925Z,31.02
2023-01-21T08:40:58.297Z,29.52
2023-01-21T08:43:26.082Z,28.40
2023-01-21T08:45:56.809Z,28.60
2023-01-21T08:48:23.955Z,28.20
2023-01-21T08:50:50.626Z,27.80
2023-01-21T08:53:17.231Z,28.45
2023-01-21T08:55:44.114Z,28.45
2023-01-21T08:58:10.746Z,28.33
2023-01-21T09:00:37.397Z,27.42
2023-01-21T09:03:04.528Z,29.42
2023-01-21T09:05:31.135Z,29.08
2023-01-21T09:07:58.336Z,28.58
2023-01-21T09:10:43.728Z,29.25
2023-01-21T09:13:10.700Z,28.25
2023-01-21T09:15:41.886Z,28.23
2023-01-21T09:18:08.790Z,29.45
2023-01-21T09:20:36.052Z,27.38
2023-01-21T09:23:02.817Z,26.75
2023-01-21T09:25:29.477Z,28.98
2023-01-21T09:27:56.062Z,29.10
2023-01-21T09:30:22.733Z,27.23
2023-01-21T09:32:49.401Z,29.35
2023-01-21T09:35:16.313Z,28.30
2023-01-21T09:37:42.983Z,26.25
2023-01-21T09:40:16.099Z,28.55
2023-01-21T09:42:43.084Z,27.02
2023-01-21T09:45:14.615Z,28.00
2023-01-21T09:47:43.028Z,27.45
2023-01-21T09:50:22.054Z,26.92
2023-01-21T09:52:54.817Z,24.95
2023-01-21T09:55:28.272Z,25.73
2023-01-21T09:57:57.616Z,26.80
2023-01-21T10:00:53.382Z,25.40
2023-01-21T10:04:26.295Z,27.10
2023-01-21T10:07:14.330Z,27.65
2023-01-21T10:09:47.435Z,25.48
2023-01-21T10:12:19.195Z,25.50
2023-01-21T10:14:56.342Z,25.83
2023-01-21T10:17:29.213Z,24.88
2023-01-21T10:20:02.484Z,27.55
2023-01-21T10:22:29.613Z,24.67
2023-01-21T10:25:15.877Z,25.83
2023-01-21T10:27:43.241Z,28.92
2023-01-21T10:30:21.370Z,28.23
2023-01-21T10:32:50.884Z,26.23
2023-01-21T10:35:19.072Z,27.20
2023-01-21T10:37:52.241Z,26.55
2023-01-21T10:40:42.752Z,26.75
2023-01-21T10:43:09.806Z,25.90
2023-01-21T10:45:57.160Z,25.77
2023-01-21T10:48:32.812Z,25.73
2023-01-21T10:51:05.869Z,25.73
2023-01-21T10:53:40.438Z,17.80
2023-01-21T10:56:12.672Z,25.45
2023-01-21T10:58:45.354Z,22.58
2023-01-21T11:01:33.066Z,22.60
2023-01-21T11:04:01.186Z,23.17
2023-01-21T11:06:32.250Z,22.90
2023-01-21T11:09:02.710Z,23.10
2023-01-21T11:11:34.577Z,23.73
2023-01-21T11:14:01.869Z,22.52
2023-01-21T11:16:34.732Z,22.40
2023-01-21T11:19:02.815Z,22.57
2023-01-21T11:21:29.865Z,21.50
2023-01-21T11:24:01.160Z,22.80
2023-01-21T11:26:29.466Z,22.02
2023-01-21T11:29:16.789Z,21.13
2023-01-21T11:32:02.617Z,21.15
2023-01-21T11:34:29.850Z,20.90
2023-01-21T11:36:58.019Z,20.95
2023-01-21T11:39:29.852Z,20.80
2023-01-21T11:42:06.614Z,20.90
2023-01-21T11:44:33.929Z,22.50
2023-01-21T11:47:00.673Z,21.15
2023-01-21T11:49:32.462Z,20.33
2023-01-21T11:52:20.242Z,20.95
2023-01-21T11:54:48.217Z,21.90
2023-01-21T11:57:24.291Z,20.60
2023-01-21T11:59:53.221Z,22.20
2023-01-21T12:02:33.508Z,20.95
2023-01-21T12:05:24.614Z,21.33
2023-01-21T12:07:52.417Z,20.60
2023-01-21T12:10:21.919Z,20.98
2023-01-21T12:13:17.785Z,21.85
2023-01-21T12:16:03.779Z,21.35
2023-01-21T12:18:42.552Z,20.92
2023-01-21T12:21:26.464Z,19.92
2023-01-21T12:26:47.857Z,17.05
2023-01-21T12:29:33.695Z,19.13
2023-01-21T12:32:19.047Z,20.73
2023-01-21T12:35:00.742Z,21.48
2023-01-21T12:37:33.190Z,21.48
2023-01-21T12:40:03.214Z,18.75
2023-01-21T12:42:37.491Z,18.90
2023-01-21T12:45:14.002Z,19.40
2023-01-21T12:47:54.084Z,19.98
2023-01-21T12:50:28.539Z,19.60
2023-01-21T12:53:10.185Z,20.33
2023-01-21T12:55:41.356Z,18.65
2023-01-21T12:58:20.920Z,18.00
2023-01-21T13:00:50.822Z,19.30
2023-01-21T13:03:29.616Z,17.70
2023-01-21T13:06:07.435Z,18.67
2023-01-21T13:08:46.763Z,18.48
2023-01-21T13:11:35.915Z,18.90
2023-01-21T13:14:08.660Z,18.95
2023-01-21T13:16:39.232Z,18.33
2023-01-21T13:19:05.996Z,18.40
2023-01-21T13:21:54.341Z,17.15
2023-01-21T13:24:43.227Z,17.77
2023-01-21T13:27:44.168Z,17.92
2023-01-21T13:30:52.446Z,16.58
2023-01-21T13:33:38.077Z,16.30
2023-01-21T13:36:16.302Z,17.42
2023-01-21T13:39:08.893Z,16.85
2023-01-21T13:41:52.084Z,17.80
2023-01-21T13:44:33.714Z,17.48
2023-01-21T13:47:29.740Z,15.80
2023-01-21T13:50:32.303Z,16.77
2023-01-21T13:53:30.037Z,17.00
2023-01-21T13:55:56.576Z,17.75
2023-01-21T13:58:44.285Z,17.70
2023-01-21T14:01:34.495Z,18.10
2023-01-21T14:04:09.962Z,17.15
2023-01-21T14:06:49.342Z,17.58
2023-01-21T14:09:38.708Z,19.02
2023-01-21T14:12:16.140Z,17.55
2023-01-21T14:15:01.311Z,31.05
2023-01-21T14:17:39.349Z,21.20
2023-01-21T14:20:19.259Z,19.60
2023-01-21T14:22:54.943Z,17.73
2023-01-21T14:25:49.635Z,17.13
2023-01-21T14:28:22.403Z,18.65
2023-01-21T14:31:24.651Z,14.17
2023-01-21T14:34:16.610Z,16.35
2023-01-21T14:37:01.438Z,21.73
2023-01-21T14:39:31.480Z,27.20
2023-01-21T14:42:09.084Z,21.13
2023-01-21T14:44:45.098Z,20.15
2023-01-21T14:47:14.613Z,20.35
2023-01-21T14:49:42.872Z,18.17
2023-01-21T14:52:14.440Z,17.92
2023-01-21T14:54:43.425Z,20.55
2023-01-21T14:57:28.683Z,19.88
2023-01-21T15:00:02.712Z,20.20
2023-01-21T15:02:41.301Z,18.55
2023-01-21T15:05:09.361Z,18.40
2023-01-21T15:07:39.711Z,18.00
2023-01-21T15:10:11.043Z,17.85
2023-01-21T15:12:39.934Z,18.58
2023-01-21T15:15:26.385Z,16.83
2023-01-21T15:17:57.689Z,18.05
2023-01-21T15:20:43.244Z,17.83
2023-01-21T15:23:22.357Z,17.50
2023-01-21T15:26:02.913Z,16.05
2023-01-21T15:28:49.526Z,17.27
2023-01-21T15:31:19.615Z,17.27
2023-01-21T15:33:48.681Z,16.65
2023-01-21T15:36:24.169Z,17.10
2023-01-21T15:38:53.471Z,15.43
2023-01-21T15:41:51.700Z,16.30
2023-01-21T15:44:42.672Z,15.95
2023-01-21T15:47:51.928Z,16.88
2023-01-21T15:50:37.579Z,14.48
2023-01-21T15:53:31.745Z,16.00
2023-01-21T15:58:41.261Z,14.50
2023-01-21T16:01:29.290Z,14.98
2023-01-21T16:04:11.433Z,15.48
2023-01-21T16:06:38.439Z,15.55
2023-01-21T16:09:06.478Z,15.10
2023-01-21T16:11:42.284Z,15.63
2023-01-21T16:14:27.950Z,17.05
2023-01-21T16:16:54.955Z,18.10
2023-01-21T16:19:24.337Z,16.73
2023-01-21T16:21:53.851Z,16.45
2023-01-21T16:24:24.610Z,14.70
2023-01-21T16:26:51.687Z,16.25
2023-01-21T16:29:18.747Z,14.52
2023-01-21T16:31:46.952Z,14.80
2023-01-21T16:34:14.199Z,14.80
2023-01-21T16:36:41.434Z,15.70
2023-01-21T16:39:09.646Z,15.13
2023-01-21T16:41:37.359Z,15.05
2023-01-21T16:44:05.459Z,14.32
2023-01-21T16:46:38.224Z,15.60
2023-01-21T16:49:07.411Z,16.57
2023-01-21T16:51:37.753Z,14.77
2023-01-21T16:54:20.132Z,14.63
2023-01-21T16:56:51.164Z,15.48
2023-01-21T16:59:41.539Z,14.82
2023-01-21T17:02:20.282Z,15.65
2023-01-21T17:04:47.511Z,16.27
2023-01-21T17:07:15.639Z,16.88
2023-01-21T17:09:43.379Z,15.30
2023-01-21T17:12:20.235Z,15.82
2023-01-21T17:14:46.905Z,14.73
2023-01-21T17:17:21.785Z,15.32
2023-01-21T17:19:50.740Z,15.75
2023-01-21T17:22:23.087Z,15.15
2023-01-21T17:25:07.486Z,15.57
2023-01-21T17:27:37.703Z,14.48
2023-01-21T17:30:25.180Z,15.90
2023-01-21T17:32:57.239Z,15.02
2023-01-21T17:35:26.768Z,14.85
2023-01-21T17:37:58.172Z,15.65
2023-01-21T17:40:27.484Z,15.00
2023-01-21T17:42:55.071Z,15.60
2023-01-21T17:45:36.706Z,15.55
2023-01-21T17:48:10.180Z,15.32
2023-01-21T17:50:44.040Z,17.98
2023-01-21T17:53:27.623Z,16.35
2023-01-21T17:56:03.596Z,16.35
2023-01-21T17:58:36.075Z,16.60
2023-01-21T18:01:04.448Z,17.17
2023-01-21T18:03:31.090Z,15.85
2023-01-21T18:05:58.090Z,21.75
2023-01-21T18:08:24.963Z,21.27
2023-01-21T18:10:51.720Z,20.70
2023-01-21T18:13:20.049Z,19.13
2023-01-21T18:15:51.298Z,16.33
2023-01-21T18:18:25.329Z,16.85
2023-01-21T18:20:52.302Z,16.52
2023-01-21T18:23:19.746Z,19.15
2023-01-21T18:25:52.409Z,18.73
2023-01-21T18:28:22.139Z,18.43
2023-01-21T18:30:50.252Z,18.60
2023-01-21T18:33:17.560Z,18.20
2023-01-21T18:35:47.127Z,17.75
2023-01-21T18:38:19.183Z,22.55
2023-01-21T18:40:46.180Z,18.45
2023-01-21T18:43:12.779Z,17.55
2023-01-21T18:45:39.894Z,17.33
2023-01-21T18:48:12.571Z,19.55
2023-01-21T18:50:39.249Z,17.63
2023-01-21T18:53:06.099Z,20.65
2023-01-21T18:55:32.829Z,19.48
2023-01-21T18:57:59.550Z,24.52
2023-01-21T19:00:29.781Z,21.77
2023-01-21T19:02:57.715Z,19.27
2023-01-21T19:05:33.902Z,20.83
2023-01-21T19:08:01.754Z,18.20
2023-01-21T19:10:28.767Z,18.38
2023-01-21T19:12:55.411Z,16.95
2023-01-21T19:15:24.855Z,18.77
2023-01-21T19:17:52.430Z,19.55
2023-01-21T19:20:28.554Z,18.85
2023-01-21T19:22:56.336Z,18.27
2023-01-21T19:25:25.945Z,18.48
2023-01-21T19:27:55.676Z,18.00
2023-01-21T19:30:31.070Z,17.98
2023-01-21T19:33:00.567Z,18.30
2023-01-21T19:35:36.429Z,18.17
2023-01-21T19:38:09.843Z,18.13
2023-01-21T19:40:36.984Z,17.20
2023-01-21T19:43:03.634Z,18.92
2023-01-21T19:45:30.531Z,17.20
2023-01-21T19:47:57.162Z,17.42
2023-01-21T19:50:26.564Z,18.05
2023-01-21T19:52:54.662Z,17.85
2023-01-21T19:55:25.557Z,17.90
2023-01-21T19:58:03.655Z,19.10
2023-01-21T20:00:33.044Z,17.58
2023-01-21T20:03:00.010Z,18.95
2023-01-21T20:05:33.666Z,18.90
2023-01-21T20:10:29.614Z,18.42
2023-01-21T20:12:57.109Z,19.73
2023-01-21T20:15:34.196Z,19.98
2023-01-21T20:18:02.931Z,19.38
2023-01-21T20:20:31.439Z,18.33
2023-01-21T20:23:01.404Z,17.92
2023-01-21T20:25:37.133Z,18.92
2023-01-21T20:28:14.352Z,19.67
2023-01-21T20:30:41.020Z,19.60
2023-01-21T20:33:14.550Z,21.02
2023-01-21T20:35:41.204Z,18.80
2023-01-21T20:38:15.407Z,19.95
2023-01-21T20:40:42.364Z,18.60
2023-01-21T20:43:10.222Z,19.38
2023-01-21T20:45:46.773Z,19.50
2023-01-21T20:48:25.165Z,19.55
2023-01-21T20:50:52.469Z,20.13
2023-01-21T20:53:19.424Z,21.45
2023-01-21T20:55:47.943Z,19.63
2023-01-21T20:58:15.630Z,18.50
2023-01-21T21:00:45.171Z,19.02
2023-01-21T21:03:14.190Z,21.92
2023-01-21T21:05:40.890Z,20.65
2023-01-21T21:08:20.681Z,21.70
2023-01-21T21:10:50.632Z,20.02
2023-01-21T21:13:17.719Z,20.83
2023-01-21T21:15:46.672Z,19.85
2023-01-21T21:18:14.377Z,20.00
2023-01-21T21:20:41.852Z,20.85
2023-01-21T21:23:13.072Z,20.65
2023-01-21T21:25:46.807Z,19.20
2023-01-21T21:28:14.741Z,19.63
2023-01-21T21:30:41.871Z,19.92
2023-01-21T21:33:12.837Z,19.77
2023-01-21T21:35:44.204Z,21.00
2023-01-21T21:38:18.169Z,20.00
2023-01-21T21:40:46.655Z,17.85
2023-01-21T21:43:34.985Z,20.20
2023-01-21T21:46:31.258Z,18.67
2023-01-21T21:48:58.298Z,21.98
2023-01-21T21:51:25.453Z,18.75
2023-01-21T21:53:52.706Z,19.88
2023-01-21T21:56:21.173Z,20.90
2023-01-21T21:58:48.734Z,20.40
2023-01-21T22:01:20.506Z,21.95
2023-01-21T22:03:47.989Z,19.85
2023-01-21T22:06:15.362Z,20.55
2023-01-21T22:08:43.365Z,19.45
2023-01-21T22:11:13.600Z,19.42
2023-01-21T22:13:43.284Z,21.77
2023-01-21T22:16:14.829Z,21.45
2023-01-21T22:18:41.889Z,19.52
2023-01-21T22:21:13.308Z,21.30
2023-01-21T22:23:40.590Z,18.92
2023-01-21T22:26:09.097Z,20.40
2023-01-21T22:28:36.572Z,20.58
2023-01-21T22:31:08.094Z,20.08
2023-01-21T22:33:35.829Z,21.77
2023-01-21T22:36:03.898Z,21.05
2023-01-21T22:38:32.665Z,20.25
2023-01-21T22:40:59.730Z,20.83
2023-01-21T22:43:26.915Z,19.67
2023-01-21T22:45:55.348Z,18.90
2023-01-21T22:48:22.864Z,20.45
2023-01-21T22:50:54.246Z,20.42
2023-01-21T22:53:21.436Z,21.17
2023-01-21T22:55:55.515Z,22.42
2023-01-21T22:58:22.827Z,22.42
2023-01-21T23:00:50.209Z,20.70
2023-01-21T23:03:17.302Z,21.45
2023-01-21T23:05:44.611Z,22.50
2023-01-21T23:08:12.168Z,22.45
2023-01-21T23:10:42.368Z,23.50
2023-01-21T23:13:13.874Z,21.75
2023-01-21T23:15:44.659Z,20.23
2023-01-21T23:18:12.847Z,20.67
2023-01-21T23:20:41.862Z,22.38
2023-01-21T23:23:09.903Z,22.02
2023-01-21T23:25:40.822Z,21.67
2023-01-21T23:28:07.956Z,21.65
2023-01-21T23:30:35.124Z,21.92
2023-01-21T23:33:02.192Z,21.65
2023-01-21T23:35:29.446Z,20.92
2023-01-21T23:37:56.521Z,20.98
2023-01-21T23:40:23.538Z,21.52
2023-01-21T23:42:51.081Z,20.55
2023-01-21T23:45:18.148Z,21.05
2023-01-21T23:47:47.580Z,20.40
2023-01-21T23:50:14.872Z,20.27
2023-01-21T23:52:42.033Z,20.25
2023-01-21T23:55:10.056Z,22.23
2023-01-21T23:57:37.133Z,21.10
